createdAt,value
2023-03-24T00:01:59.474Z,97.60
2023-03-24T00:04:31.512Z,97.60
2023-03-24T00:07:04.298Z,97.50
2023-03-24T00:09:36.707Z,97.50
2023-03-24T00:12:18.733Z,97.70
2023-03-24T00:14:54.495Z,97.90
2023-03-24T00:17:29.574Z,97.90
2023-03-24T00:20:02.280Z,98.30
2023-03-24T00:22:36.293Z,98.40
2023-03-24T00:25:11.667Z,98.50
2023-03-24T00:27:45.032Z,98.40
2023-03-24T00:30:18.682Z,98.50
2023-03-24T00:32:52.044Z,98.60
2023-03-24T00:35:24.113Z,99.00
2023-03-24T00:37:56.070Z,99.20
2023-03-24T00:40:28.388Z,99.50
2023-03-24T00:43:00.557Z,99.70
2023-03-24T00:45:34.564Z,99.70
2023-03-24T00:48:06.585Z,99.60
2023-03-24T00:50:38.564Z,99.60
2023-03-24T00:53:10.601Z,99.50
2023-03-24T00:55:48.056Z,99.70
2023-03-24T00:58:21.782Z,99.90
2023-03-24T01:00:57.210Z,99.90
2023-03-24T01:03:29.350Z,99.90
2023-03-24T01:06:04.455Z,99.90
2023-03-24T01:08:36.562Z,99.80
2023-03-24T01:11:08.476Z,99.70
2023-03-24T01:13:45.238Z,99.60
2023-03-24T01:16:17.494Z,99.60
2023-03-24T01:18:49.578Z,99.60
2023-03-24T01:21:21.600Z,99.80
2023-03-24T01:23:54.500Z,99.90
2023-03-24T01:26:26.521Z,99.90
2023-03-24T01:28:58.571Z,99.90
2023-03-24T01:31:30.705Z,99.90
2023-03-24T01:34:03.381Z,99.90
2023-03-24T01:36:35.338Z,99.90
2023-03-24T01:39:07.767Z,99.90
2023-03-24T01:41:41.899Z,99.90
2023-03-24T01:44:27.306Z,99.90
2023-03-24T01:47:02.145Z,99.90
2023-03-24T01:49:39.587Z,99.90
2023-03-24T01:52:17.283Z,99.90
2023-03-24T01:54:58.876Z,99.90
2023-03-24T01:57:35.829Z,99.90
2023-03-24T02:00:11.597Z,99.90
2023-03-24T02:02:55.045Z,99.90
2023-03-24T02:05:33.424Z,99.90
2023-03-24T02:08:23.838Z,99.90
2023-03-24T02:10:56.905Z,99.90
2023-03-24T02:13:34.003Z,99.90
2023-03-24T02:16:26.157Z,99.90
2023-03-24T02:19:12.564Z,99.90
2023-03-24T02:22:21.850Z,99.90
2023-03-24T02:25:31.511Z,99.90
2023-03-24T02:28:19.722Z,99.90
2023-03-24T02:31:04.099Z,99.90
2023-03-24T02:34:19.408Z,99.90
2023-03-24T02:37:21.297Z,99.90
2023-03-24T02:39:59.363Z,99.90
2023-03-24T02:42:56.755Z,99.90
2023-03-24T02:46:04.439Z,99.90
2023-03-24T02:48:55.248Z,99.90
2023-03-24T02:51:53.387Z,99.90
2023-03-24T02:54:33.095Z,99.90
2023-03-24T02:57:22.174Z,99.90
2023-03-24T03:00:13.941Z,99.90
2023-03-24T03:03:21.991Z,99.90
2023-03-24T03:05:59.240Z,99.90
2023-03-24T03:08:34.034Z,99.90
2023-03-24T03:11:09.199Z,99.90
2023-03-24T03:13:52.311Z,99.90
2023-03-24T03:16:38.367Z,99.90
2023-03-24T03:19:19.648Z,99.90
2023-03-24T03:21:53.671Z,99.90
2023-03-24T03:24:39.306Z,99.90
2023-03-24T03:27:19.498Z,99.90
2023-03-24T03:29:56.221Z,99.90
2023-03-24T03:32:32.168Z,99.90
2023-03-24T03:35:14.189Z,99.90
2023-03-24T03:38:18.469Z,99.90
2023-03-24T03:40:54.355Z,99.90
2023-03-24T03:43:31.476Z,99.90
2023-03-24T03:46:06.477Z,99.90
2023-03-24T03:48:41.887Z,99.90
2023-03-24T03:51:15.323Z,99.90
2023-03-24T03:53:59.294Z,99.90
2023-03-24T03:56:35.953Z,99.90
2023-03-24T03:59:34.558Z,99.90
2023-03-24T04:02:42.361Z,99.90
2023-03-24T04:05:26.161Z,99.90
2023-03-24T04:08:35.060Z,99.90
2023-03-24T04:11:32.751Z,99.90
2023-03-24T04:14:49.045Z,99.90
2023-03-24T04:17:54.224Z,99.90
2023-03-24T04:21:28.634Z,99.90
2023-03-24T04:24:02.328Z,99.90
2023-03-24T04:27:00.720Z,99.90
2023-03-24T04:30:02.784Z,99.90
2023-03-24T04:32:47.508Z,99.90
2023-03-24T04:35:53.681Z,99.90
2023-03-24T04:38:38.381Z,99.90
2023-03-24T04:41:33.880Z,99.90
2023-03-24T04:44:17.738Z,99.90
2023-03-24T04:47:10.134Z,99.90
2023-03-24T04:49:43.217Z,99.90
2023-03-24T04:52:17.889Z,99.90
2023-03-24T04:54:50.296Z,99.90
2023-03-24T04:57:22.180Z,99.90
2023-03-24T05:00:01.272Z,99.90
2023-03-24T05:02:35.718Z,99.90
2023-03-24T05:05:17.214Z,99.90
2023-03-24T05:07:52.469Z,99.90
2023-03-24T05:10:24.644Z,99.90
2023-03-24T05:13:00.188Z,99.90
2023-03-24T05:15:32.195Z,99.90
2023-03-24T05:18:20.048Z,99.90
2023-03-24T05:20:54.883Z,99.90
2023-03-24T05:23:27.653Z,99.90
2023-03-24T05:26:01.443Z,99.90
2023-03-24T05:28:36.322Z,99.90
2023-03-24T05:31:08.473Z,99.90
2023-03-24T05:33:48.659Z,99.90
2023-03-24T05:36:23.650Z,99.90
2023-03-24T05:39:00.439Z,99.90
2023-03-24T05:41:43.944Z,99.90
2023-03-24T05:44:16.244Z,99.90
2023-03-24T05:46:57.195Z,99.90
2023-03-24T05:49:29.351Z,99.90
2023-03-24T05:52:02.333Z,99.90
2023-03-24T05:54:35.756Z,99.90
2023-03-24T05:57:20.573Z,99.90
2023-03-24T06:00:16.863Z,99.90
2023-03-24T06:03:09.663Z,99.90
2023-03-24T06:05:52.796Z,99.90
2023-03-24T06:08:24.923Z,99.90
2023-03-24T06:11:02.402Z,99.90
2023-03-24T06:13:36.411Z,99.90
2023-03-24T06:16:10.027Z,99.90
2023-03-24T06:18:52.380Z,99.90
2023-03-24T06:21:50.688Z,99.90
2023-03-24T06:24:26.630Z,99.90
2023-03-24T06:27:09.049Z,99.90
2023-03-24T06:29:44.808Z,99.90
2023-03-24T06:32:21.555Z,99.90
2023-03-24T06:34:54.129Z,99.90
2023-03-24T06:37:56.054Z,99.90
2023-03-24T06:40:32.355Z,99.90
2023-03-24T06:43:04.478Z,99.90
2023-03-24T06:45:40.213Z,99.90
2023-03-24T06:48:15.653Z,99.90
2023-03-24T06:50:48.207Z,99.90
2023-03-24T06:53:21.974Z,99.90
2023-03-24T06:55:54.801Z,99.90
2023-03-24T06:58:33.876Z,99.90
2023-03-24T07:01:14.911Z,99.90
2023-03-24T07:03:55.014Z,99.90
2023-03-24T07:06:46.564Z,99.90
2023-03-24T07:09:29.856Z,99.90
2023-03-24T07:12:03.717Z,99.90
2023-03-24T07:14:36.361Z,99.90
2023-03-24T07:17:11.318Z,99.90
2023-03-24T07:19:50.424Z,99.90
2023-03-24T07:22:45.756Z,99.90
2023-03-24T07:25:46.964Z,99.90
2023-03-24T07:28:25.032Z,99.90
2023-03-24T07:30:57.414Z,99.90
2023-03-24T07:33:30.037Z,99.90
2023-03-24T07:36:02.269Z,99.90
2023-03-24T07:38:35.053Z,99.90
2023-03-24T07:41:11.211Z,99.90
2023-03-24T07:43:47.352Z,99.90
2023-03-24T07:46:40.122Z,99.90
2023-03-24T07:49:19.383Z,99.90
2023-03-24T07:52:06.559Z,99.90
2023-03-24T07:54:44.970Z,99.90
2023-03-24T07:57:37.452Z,99.90
2023-03-24T08:00:18.066Z,99.90
2023-03-24T08:03:00.187Z,99.90
2023-03-24T08:05:52.857Z,99.90
2023-03-24T08:08:36.505Z,99.90
2023-03-24T08:11:08.501Z,99.90
2023-03-24T08:13:40.694Z,99.90
2023-03-24T08:16:13.149Z,99.90
2023-03-24T08:18:45.062Z,99.90
2023-03-24T08:21:17.376Z,99.90
2023-03-24T08:23:49.588Z,99.90
2023-03-24T08:26:22.667Z,99.90
2023-03-24T08:28:54.859Z,99.90
2023-03-24T08:31:38.787Z,99.90
2023-03-24T08:34:11.877Z,99.90
2023-03-24T08:36:43.789Z,99.90
2023-03-24T08:39:15.855Z,99.90
2023-03-24T08:41:50.200Z,99.90
2023-03-24T08:44:22.175Z,99.90
2023-03-24T08:46:54.157Z,99.90
2023-03-24T08:49:26.124Z,99.90
2023-03-24T08:51:58.032Z,99.90
2023-03-24T08:54:29.937Z,99.90
2023-03-24T08:57:01.928Z,99.90
2023-03-24T08:59:33.889Z,99.90
2023-03-24T09:02:06.077Z,99.90
2023-03-24T09:04:38.724Z,99.90
2023-03-24T09:07:10.829Z,99.90
2023-03-24T09:09:42.837Z,99.90
2023-03-24T09:12:14.853Z,99.90
2023-03-24T09:14:50.302Z,99.90
2023-03-24T09:17:22.404Z,99.90
2023-03-24T09:19:55.206Z,99.90
2023-03-24T09:22:27.424Z,99.90
2023-03-24T09:24:59.343Z,99.90
2023-03-24T09:27:33.036Z,99.90
2023-03-24T09:30:06.980Z,99.90
2023-03-24T09:32:39.018Z,99.90
2023-03-24T09:35:11.381Z,99.90
2023-03-24T09:37:44.031Z,99.90
2023-03-24T09:40:25.633Z,99.90
2023-03-24T09:43:05.196Z,99.90
2023-03-24T09:45:44.391Z,99.90
2023-03-24T09:48:19.376Z,99.90
2023-03-24T09:51:21.130Z,99.90
2023-03-24T09:53:57.450Z,99.90
2023-03-24T09:56:30.463Z,99.90
2023-03-24T09:59:05.102Z,99.90
2023-03-24T10:01:37.322Z,99.90
2023-03-24T10:04:20.504Z,99.90
2023-03-24T10:07:17.566Z,99.90
2023-03-24T10:10:00.215Z,99.90
2023-03-24T10:12:43.256Z,99.90
2023-03-24T10:15:34.654Z,99.90
2023-03-24T10:18:12.422Z,99.90
2023-03-24T10:21:06.570Z,99.90
2023-03-24T10:23:45.697Z,99.90
2023-03-24T10:26:58.393Z,99.90
2023-03-24T10:29:35.638Z,99.90
2023-03-24T10:32:22.146Z,99.90
2023-03-24T10:35:07.610Z,99.90
2023-03-24T10:37:39.631Z,99.90
2023-03-24T10:40:18.574Z,99.90
2023-03-24T10:43:06.774Z,99.90
2023-03-24T10:45:44.960Z,99.90
2023-03-24T10:48:39.786Z,99.90
2023-03-24T10:51:26.677Z,99.80
2023-03-24T10:54:19.705Z,99.50
2023-03-24T10:56:58.091Z,99.10
2023-03-24T10:59:35.685Z,99.30
2023-03-24T11:02:11.091Z,99.00
2023-03-24T11:04:58.531Z,99.00
2023-03-24T11:07:36.136Z,99.00
2023-03-24T11:10:11.224Z,99.40
2023-03-24T11:12:59.405Z,99.70
2023-03-24T11:15:33.778Z,99.50
2023-03-24T11:18:16.610Z,99.40
2023-03-24T11:21:06.900Z,99.10
2023-03-24T11:23:42.845Z,99.30
2023-03-24T11:26:18.299Z,98.00
2023-03-24T11:28:57.139Z,98.30
2023-03-24T11:31:31.760Z,97.90
2023-03-24T11:34:34.496Z,97.00
2023-03-24T11:37:17.401Z,96.40
2023-03-24T11:40:18.786Z,96.20
2023-03-24T11:42:58.216Z,95.60
2023-03-24T11:45:43.158Z,95.60
2023-03-24T11:48:41.685Z,95.40
2023-03-24T11:51:22.240Z,95.30
2023-03-24T11:53:56.809Z,94.90
2023-03-24T11:56:31.619Z,94.40
2023-03-24T11:59:31.533Z,94.60
2023-03-24T12:02:17.101Z,94.30
2023-03-24T12:05:04.982Z,94.00
2023-03-24T12:07:55.461Z,94.00
2023-03-24T12:11:00.737Z,93.80
2023-03-24T12:13:38.756Z,94.30
2023-03-24T12:16:19.720Z,94.50
2023-03-24T12:19:00.608Z,93.90
2023-03-24T12:22:04.492Z,94.70
2023-03-24T12:25:04.873Z,93.80
2023-03-24T12:27:39.983Z,93.80
2023-03-24T12:30:41.132Z,93.80
2023-03-24T12:33:23.578Z,93.80
2023-03-24T12:36:21.184Z,94.00
2023-03-24T12:39:06.834Z,94.10
2023-03-24T12:42:06.971Z,93.90
2023-03-24T12:44:58.894Z,94.70
2023-03-24T12:47:46.404Z,94.00
2023-03-24T12:50:40.466Z,93.10
2023-03-24T12:53:46.396Z,93.60
2023-03-24T12:56:45.755Z,93.30
2023-03-24T12:59:53.091Z,93.50
2023-03-24T13:02:33.062Z,94.00
2023-03-24T13:05:17.014Z,94.00
2023-03-24T13:07:54.598Z,93.40
2023-03-24T13:10:29.715Z,92.50
2023-03-24T13:13:23.798Z,93.10
2023-03-24T13:16:03.585Z,93.40
2023-03-24T13:18:50.876Z,93.70
2023-03-24T13:21:29.711Z,94.20
2023-03-24T13:24:12.847Z,94.10
2023-03-24T13:27:09.992Z,93.80
2023-03-24T13:29:49.138Z,94.00
2023-03-24T13:32:28.779Z,94.00
2023-03-24T13:35:06.125Z,93.90
2023-03-24T13:38:13.671Z,94.20
2023-03-24T13:40:51.105Z,94.00
2023-03-24T13:43:26.919Z,94.20
2023-03-24T13:45:59.994Z,93.80
2023-03-24T13:48:51.380Z,94.10
2023-03-24T13:51:45.152Z,93.80
2023-03-24T13:54:21.919Z,93.50
2023-03-24T13:57:07.929Z,93.60
2023-03-24T13:59:57.505Z,93.20
2023-03-24T14:02:29.492Z,92.80
2023-03-24T14:05:01.537Z,93.00
2023-03-24T14:07:43.746Z,93.40
2023-03-24T14:10:16.418Z,93.20
2023-03-24T14:12:56.304Z,93.60
2023-03-24T14:15:55.948Z,93.60
2023-03-24T14:18:28.481Z,93.50
2023-03-24T14:21:04.270Z,93.60
2023-03-24T14:23:48.253Z,93.40
2023-03-24T14:26:21.054Z,93.10
2023-03-24T14:28:57.947Z,93.10
2023-03-24T14:31:36.378Z,93.00
2023-03-24T14:34:25.586Z,92.80
2023-03-24T14:37:04.012Z,93.00
2023-03-24T14:39:45.739Z,93.20
2023-03-24T14:42:34.931Z,93.30
2023-03-24T14:45:31.363Z,93.20
2023-03-24T14:48:16.886Z,93.30
2023-03-24T14:50:52.631Z,93.50
2023-03-24T14:53:27.665Z,93.50
2023-03-24T14:55:59.974Z,93.60
2023-03-24T14:58:39.125Z,93.30
2023-03-24T15:01:12.763Z,93.00
2023-03-24T15:03:51.343Z,93.00
2023-03-24T15:06:24.159Z,93.00
2023-03-24T15:08:58.859Z,93.00
2023-03-24T15:11:37.612Z,92.90
2023-03-24T15:14:29.300Z,93.00
2023-03-24T15:17:09.088Z,93.40
2023-03-24T15:19:41.857Z,93.40
2023-03-24T15:22:17.785Z,93.40
2023-03-24T15:24:52.225Z,93.30
2023-03-24T15:27:29.078Z,93.40
2023-03-24T15:30:01.114Z,93.60
2023-03-24T15:32:39.032Z,93.70
2023-03-24T15:35:14.739Z,93.70
2023-03-24T15:37:55.847Z,93.80
2023-03-24T15:40:27.906Z,94.10
2023-03-24T15:43:02.649Z,94.10
2023-03-24T15:45:43.685Z,94.20
2023-03-24T15:48:19.974Z,94.20
2023-03-24T15:51:11.438Z,94.30
2023-03-24T15:53:49.416Z,94.50
2023-03-24T15:56:33.389Z,94.40
2023-03-24T15:59:11.889Z,94.60
2023-03-24T16:01:45.276Z,94.60
2023-03-24T16:04:20.692Z,94.50
2023-03-24T16:06:54.746Z,94.30
2023-03-24T16:09:38.089Z,94.50
2023-03-24T16:12:13.190Z,94.50
2023-03-24T16:14:45.158Z,94.40
2023-03-24T16:17:17.253Z,94.50
2023-03-24T16:19:49.226Z,94.70
2023-03-24T16:22:21.823Z,94.60
2023-03-24T16:24:53.786Z,94.90
2023-03-24T16:27:25.820Z,94.90
2023-03-24T16:29:57.836Z,94.80
2023-03-24T16:32:29.798Z,95.00
2023-03-24T16:35:01.953Z,95.00
2023-03-24T16:37:33.941Z,94.90
2023-03-24T16:40:21.536Z,94.90
2023-03-24T16:42:53.563Z,95.10
2023-03-24T16:45:25.812Z,95.10
2023-03-24T16:47:59.058Z,95.20
2023-03-24T16:50:40.952Z,95.50
2023-03-24T16:53:13.075Z,95.00
2023-03-24T16:55:46.840Z,95.00
2023-03-24T16:58:18.991Z,95.00
2023-03-24T17:00:52.133Z,95.00
2023-03-24T17:03:25.165Z,95.00
2023-03-24T17:05:57.928Z,95.40
2023-03-24T17:08:29.835Z,95.60
2023-03-24T17:11:02.176Z,95.60
2023-03-24T17:13:34.688Z,95.50
2023-03-24T17:16:09.505Z,95.40
2023-03-24T17:18:41.608Z,95.40
2023-03-24T17:21:17.719Z,95.80
2023-03-24T17:23:50.236Z,96.30
2023-03-24T17:26:23.319Z,95.90
2023-03-24T17:28:56.647Z,96.00
2023-03-24T17:31:28.917Z,96.50
2023-03-24T17:34:15.185Z,97.20
2023-03-24T17:36:53.482Z,96.50
2023-03-24T17:39:25.576Z,96.50
2023-03-24T17:42:01.561Z,96.70
2023-03-24T17:44:33.872Z,97.10
2023-03-24T17:47:06.332Z,96.90
2023-03-24T17:49:38.426Z,97.10
2023-03-24T17:52:10.584Z,97.60
2023-03-24T17:54:44.036Z,97.80
2023-03-24T17:57:20.977Z,97.90
2023-03-24T17:59:53.284Z,98.10
2023-03-24T18:02:25.374Z,98.00
2023-03-24T18:05:00.194Z,98.00
2023-03-24T18:07:33.515Z,97.90
2023-03-24T18:10:06.724Z,98.10
2023-03-24T18:12:42.655Z,98.40
2023-03-24T18:15:14.602Z,98.60
2023-03-24T18:17:46.994Z,98.80
2023-03-24T18:20:19.058Z,98.70
2023-03-24T18:22:52.435Z,98.70
2023-03-24T18:25:25.230Z,98.80
2023-03-24T18:27:57.598Z,98.90
2023-03-24T18:30:32.678Z,99.10
2023-03-24T18:33:05.356Z,99.20
2023-03-24T18:35:37.459Z,99.00
2023-03-24T18:38:09.460Z,98.90
2023-03-24T18:40:41.577Z,98.90
2023-03-24T18:43:13.767Z,99.10
2023-03-24T18:45:45.970Z,99.40
2023-03-24T18:48:18.209Z,99.30
2023-03-24T18:50:51.996Z,99.40
2023-03-24T18:53:24.119Z,99.80
2023-03-24T18:55:56.970Z,99.60
2023-03-24T18:58:29.122Z,99.60
2023-03-24T19:01:06.940Z,99.90
2023-03-24T19:03:41.060Z,99.80
2023-03-24T19:06:14.546Z,99.80
2023-03-24T19:08:51.002Z,99.70
2023-03-24T19:11:23.392Z,99.90
2023-03-24T19:13:56.943Z,99.90
2023-03-24T19:16:29.033Z,99.90
2023-03-24T19:19:01.796Z,99.90
2023-03-24T19:21:34.180Z,99.90
2023-03-24T19:24:06.883Z,99.90
2023-03-24T19:26:39.050Z,99.90
2023-03-24T19:29:11.129Z,99.90
2023-03-24T19:31:43.302Z,99.90
2023-03-24T19:34:15.749Z,99.90
2023-03-24T19:36:49.607Z,99.90
2023-03-24T19:39:22.500Z,99.90
2023-03-24T19:41:54.611Z,99.90
2023-03-24T19:44:26.542Z,99.90
2023-03-24T19:46:58.537Z,99.90
2023-03-24T19:49:30.605Z,99.90
2023-03-24T19:52:03.768Z,99.90
2023-03-24T19:54:36.032Z,99.90
2023-03-24T19:57:08.105Z,99.90
2023-03-24T19:59:40.138Z,99.90
2023-03-24T20:02:16.382Z,99.90
2023-03-24T20:04:48.368Z,99.90
2023-03-24T20:07:20.793Z,99.90
2023-03-24T20:09:52.800Z,99.90
2023-03-24T20:12:26.897Z,99.90
2023-03-24T20:14:58.844Z,99.90
2023-03-24T20:17:37.275Z,99.90
2023-03-24T20:20:11.177Z,99.90
2023-03-24T20:22:45.847Z,99.90
2023-03-24T20:25:19.588Z,99.90
2023-03-24T20:27:51.630Z,99.90
2023-03-24T20:30:24.215Z,99.90
2023-03-24T20:32:56.942Z,99.90
2023-03-24T20:35:29.313Z,99.90
2023-03-24T20:38:01.686Z,99.90
2023-03-24T20:40:33.640Z,99.90
2023-03-24T20:43:05.652Z,99.90
2023-03-24T20:45:37.859Z,99.90
2023-03-24T20:48:09.867Z,99.90
2023-03-24T20:50:44.895Z,99.90
2023-03-24T20:53:20.632Z,99.90
2023-03-24T20:56:07.658Z,99.90
2023-03-24T20:58:40.004Z,99.90
2023-03-24T21:01:20.735Z,99.90
2023-03-24T21:04:02.172Z,99.90
2023-03-24T21:06:43.860Z,99.90
2023-03-24T21:09:17.022Z,99.90
2023-03-24T21:11:52.330Z,99.90
2023-03-24T21:14:27.146Z,99.90
2023-03-24T21:16:59.468Z,99.90
2023-03-24T21:19:32.265Z,99.90
2023-03-24T21:22:07.082Z,99.90
2023-03-24T21:24:39.009Z,99.90
2023-03-24T21:27:10.979Z,99.90
2023-03-24T21:29:43.229Z,99.90
2023-03-24T21:32:15.375Z,99.90
2023-03-24T21:34:47.606Z,99.90
2023-03-24T21:37:19.818Z,99.90
2023-03-24T21:39:51.808Z,99.90
2023-03-24T21:42:24.152Z,99.90
2023-03-24T21:44:57.185Z,99.90
2023-03-24T21:47:29.645Z,99.90
2023-03-24T21:50:02.996Z,99.90
2023-03-24T21:52:41.616Z,99.90
2023-03-24T21:55:15.568Z,99.90
2023-03-24T21:57:49.101Z,99.90
2023-03-24T22:00:24.034Z,99.90
2023-03-24T22:02:58.330Z,99.90
2023-03-24T22:05:32.835Z,99.90
2023-03-24T22:08:06.549Z,99.90
2023-03-24T22:10:42.533Z,99.90
2023-03-24T22:13:14.435Z,99.90
2023-03-24T22:15:46.512Z,99.90
2023-03-24T22:18:18.453Z,99.90
2023-03-24T22:20:55.476Z,99.90
2023-03-24T22:23:32.781Z,99.90
2023-03-24T22:26:13.962Z,99.90
2023-03-24T22:28:46.119Z,99.90
2023-03-24T22:31:18.200Z,99.90
2023-03-24T22:33:50.457Z,99.90
2023-03-24T22:36:22.363Z,99.90
2023-03-24T22:38:54.284Z,99.90
2023-03-24T22:41:26.392Z,99.90
2023-03-24T22:43:58.493Z,99.90
2023-03-24T22:46:30.608Z,99.90
2023-03-24T22:49:03.505Z,99.90
2023-03-24T22:51:35.571Z,99.90
2023-03-24T22:54:07.533Z,99.90
2023-03-24T22:56:39.452Z,99.90
2023-03-24T22:59:11.359Z,99.90
2023-03-24T23:01:43.483Z,99.90
2023-03-24T23:04:15.549Z,99.90
2023-03-24T23:06:47.517Z,99.90
2023-03-24T23:09:21.479Z,99.90
2023-03-24T23:11:54.997Z,99.90
2023-03-24T23:14:27.755Z,99.90
2023-03-24T23:16:59.720Z,99.90
2023-03-24T23:19:34.190Z,99.90
2023-03-24T23:22:06.871Z,99.90
2023-03-24T23:24:39.623Z,99.90
2023-03-24T23:27:12.186Z,99.90
2023-03-24T23:29:44.120Z,99.90
2023-03-24T23:32:16.271Z,99.90
2023-03-24T23:34:49.809Z,99.90
2023-03-24T23:37:21.856Z,99.90
2023-03-24T23:39:53.878Z,99.90
2023-03-24T23:42:26.076Z,99.90
2023-03-24T23:44:57.960Z,99.90
2023-03-24T23:47:32.698Z,99.90
2023-03-24T23:50:06.332Z,99.90
2023-03-24T23:52:41.295Z,99.90
2023-03-24T23:55:15.059Z,99.90
2023-03-24T23:57:49.243Z,99.90
